createdAt,value
2023-11-01T00:01:00.608Z,85716.44
2023-11-01T00:03:27.156Z,85715.84
2023-11-01T00:05:53.718Z,85710.63
2023-11-01T00:08:20.402Z,85704.63
2023-11-01T00:10:46.981Z,85702.63
2023-11-01T00:13:13.542Z,85705.81
2023-11-01T00:15:40.062Z,85698.22
2023-11-01T00:18:06.735Z,85690.47
2023-11-01T00:20:33.316Z,85691.00
2023-11-01T00:23:00.254Z,85695.31
2023-11-01T00:25:26.720Z,85680.97
2023-11-01T00:27:53.371Z,85696.59
2023-11-01T00:30:20.062Z,85687.63
2023-11-01T00:32:46.718Z,85707.09
2023-11-01T00:35:13.551Z,85710.88
2023-11-01T00:37:40.191Z,85710.69
2023-11-01T00:40:07.272Z,85706.31
2023-11-01T00:42:38.056Z,85706.19
2023-11-01T00:45:05.171Z,85708.06
2023-11-01T00:47:31.831Z,85694.19
2023-11-01T00:49:58.810Z,85693.34
2023-11-01T00:52:25.369Z,85704.16
2023-11-01T00:54:52.209Z,85707.56
2023-11-01T00:57:19.619Z,85702.38
2023-11-01T00:59:46.175Z,85712.72
2023-11-01T01:02:13.031Z,85720.47
2023-11-01T01:04:39.670Z,85707.22
2023-11-01T01:07:06.308Z,85706.47
2023-11-01T01:09:32.916Z,85689.81
2023-11-01T01:11:59.455Z,85681.50
2023-11-01T01:14:34.820Z,85675.13
2023-11-01T01:17:02.256Z,85655.34
2023-11-01T01:19:29.315Z,85668.63
2023-11-01T01:21:55.892Z,85673.84
2023-11-01T01:24:22.685Z,85680.28
2023-11-01T01:26:49.225Z,85664.69
2023-11-01T01:29:15.865Z,85668.41
2023-11-01T01:31:42.511Z,85666.22
2023-11-01T01:34:09.032Z,85659.88
2023-11-01T01:36:35.764Z,85663.25
2023-11-01T01:39:03.343Z,85660.31
2023-11-01T01:41:30.003Z,85660.00
2023-11-01T01:43:56.605Z,85664.88
2023-11-01T01:46:24.673Z,85674.28
2023-11-01T01:48:51.287Z,85665.13
2023-11-01T01:51:21.559Z,85672.13
2023-11-01T01:53:48.858Z,85675.41
2023-11-01T01:56:16.328Z,85668.34
2023-11-01T01:58:43.398Z,85666.00
2023-11-01T02:01:10.215Z,85683.00
2023-11-01T02:03:37.137Z,85664.34
2023-11-01T02:06:04.211Z,85673.88
2023-11-01T02:08:30.740Z,85658.13
2023-11-01T02:10:57.482Z,85670.84
2023-11-01T02:13:24.053Z,85661.72
2023-11-01T02:15:50.707Z,85660.66
2023-11-01T02:18:17.334Z,85655.03
2023-11-01T02:20:46.066Z,85657.44
2023-11-01T02:23:13.001Z,85658.53
2023-11-01T02:25:39.841Z,85657.59
2023-11-01T02:28:06.785Z,85658.38
2023-11-01T02:30:33.350Z,85653.78
2023-11-01T02:33:00.117Z,85659.66
2023-11-01T02:35:26.765Z,85660.72
2023-11-01T02:37:53.563Z,85674.53
2023-11-01T02:40:20.138Z,85661.19
2023-11-01T02:42:48.315Z,85663.00
2023-11-01T02:45:15.251Z,85661.47
2023-11-01T02:47:42.456Z,85665.94
2023-11-01T02:50:15.510Z,85673.91
2023-11-01T02:52:42.100Z,85666.66
2023-11-01T02:55:10.373Z,85667.34
2023-11-01T02:57:37.119Z,85676.13
2023-11-01T03:00:09.970Z,85677.16
2023-11-01T03:02:36.952Z,85674.91
2023-11-01T03:05:04.594Z,85670.47
2023-11-01T03:07:31.146Z,85669.69
2023-11-01T03:09:57.922Z,85677.81
2023-11-01T03:12:24.473Z,85678.97
2023-11-01T03:14:51.249Z,85678.00
2023-11-01T03:17:17.875Z,85675.66
2023-11-01T03:19:45.222Z,85677.41
2023-11-01T03:22:11.758Z,85672.75
2023-11-01T03:24:38.363Z,85668.94
2023-11-01T03:27:04.897Z,85663.09
2023-11-01T03:29:32.634Z,85665.75
2023-11-01T03:31:59.236Z,85669.69
2023-11-01T03:34:26.069Z,85668.66
2023-11-01T03:36:52.602Z,85668.56
2023-11-01T03:39:20.275Z,85666.03
2023-11-01T03:41:47.100Z,85675.47
2023-11-01T03:44:13.697Z,85667.25
2023-11-01T03:46:42.687Z,85659.34
2023-11-01T03:49:09.244Z,85665.88
2023-11-01T03:51:35.961Z,85673.81
2023-11-01T03:54:02.574Z,85669.59
2023-11-01T03:56:29.214Z,85668.72
2023-11-01T03:58:56.359Z,85670.06
2023-11-01T04:01:23.371Z,85669.38
2023-11-01T04:03:50.102Z,85677.69
2023-11-01T04:06:16.807Z,85679.34
2023-11-01T04:08:49.556Z,85673.06
2023-11-01T04:11:16.176Z,85687.41
2023-11-01T04:13:42.831Z,85683.66
2023-11-01T04:16:09.466Z,85689.97
2023-11-01T04:18:36.140Z,85689.66
2023-11-01T04:21:03.811Z,85688.25
2023-11-01T04:23:30.507Z,85694.81
2023-11-01T04:25:57.927Z,85688.91
2023-11-01T04:28:24.670Z,85695.38
2023-11-01T04:30:52.646Z,85700.63
2023-11-01T04:33:19.140Z,85695.63
2023-11-01T04:35:45.890Z,85700.28
2023-11-01T04:38:12.704Z,85710.69
2023-11-01T04:40:39.232Z,85710.19
2023-11-01T04:43:07.056Z,85713.47
2023-11-01T04:45:33.702Z,85713.91
2023-11-01T04:48:02.330Z,85713.66
2023-11-01T04:50:29.008Z,85709.16
2023-11-01T04:52:55.661Z,85715.75
2023-11-01T04:55:22.818Z,85717.56
2023-11-01T04:57:50.032Z,85718.75
2023-11-01T05:00:19.303Z,85713.13
2023-11-01T05:02:48.896Z,85722.91
2023-11-01T05:05:15.614Z,85725.50
2023-11-01T05:07:42.393Z,85733.13
2023-11-01T05:10:09.127Z,85735.00
2023-11-01T05:12:35.677Z,85731.13
2023-11-01T05:15:02.345Z,85742.50
2023-11-01T05:17:29.884Z,85749.31
2023-11-01T05:19:56.428Z,85748.91
2023-11-01T05:22:22.969Z,85752.13
2023-11-01T05:24:51.380Z,85756.72
2023-11-01T05:27:19.163Z,85751.63
2023-11-01T05:29:46.114Z,85756.34
2023-11-01T05:32:14.964Z,85754.91
2023-11-01T05:34:42.008Z,85759.97
2023-11-01T05:37:11.118Z,85764.38
2023-11-01T05:39:37.839Z,85767.56
2023-11-01T05:42:04.646Z,85768.09
2023-11-01T05:44:32.202Z,85763.91
2023-11-01T05:47:05.070Z,85770.50
2023-11-01T05:49:32.786Z,85774.47
2023-11-01T05:51:59.356Z,85783.84
2023-11-01T05:54:25.961Z,85781.66
2023-11-01T05:56:52.482Z,85787.34
2023-11-01T05:59:19.147Z,85779.81
2023-11-01T06:01:45.976Z,85786.41
2023-11-01T06:04:12.768Z,85786.09
2023-11-01T06:06:39.329Z,85781.69
2023-11-01T06:09:06.020Z,85787.69
2023-11-01T06:11:33.237Z,85786.84
2023-11-01T06:14:00.615Z,85783.28
2023-11-01T06:16:27.153Z,85773.28
2023-11-01T06:18:53.941Z,85777.19
2023-11-01T06:21:20.468Z,85782.69
2023-11-01T06:23:47.108Z,85784.34
2023-11-01T06:26:17.555Z,85776.41
2023-11-01T06:28:47.564Z,85777.34
2023-11-01T06:31:14.137Z,85780.53
2023-11-01T06:33:40.865Z,85778.38
2023-11-01T06:36:08.232Z,85784.22
2023-11-01T06:38:34.830Z,85784.09
2023-11-01T06:41:03.015Z,85779.81
2023-11-01T06:43:29.579Z,85784.53
2023-11-01T06:45:56.774Z,85781.28
2023-11-01T06:48:23.448Z,85791.47
2023-11-01T06:50:50.134Z,85795.28
2023-11-01T06:53:16.964Z,85794.53
2023-11-01T06:55:43.514Z,85796.91
2023-11-01T06:58:10.140Z,85790.56
2023-11-01T07:00:37.087Z,85795.13
2023-11-01T07:03:03.915Z,85799.03
2023-11-01T07:05:30.572Z,85790.81
2023-11-01T07:07:57.541Z,85801.19
2023-11-01T07:10:26.422Z,85805.22
2023-11-01T07:12:52.980Z,85794.38
2023-11-01T07:15:20.343Z,85795.00
2023-11-01T07:17:48.748Z,85794.69
2023-11-01T07:20:15.399Z,85794.38
2023-11-01T07:22:42.321Z,85802.41
2023-11-01T07:25:09.339Z,85793.47
2023-11-01T07:27:35.878Z,85791.88
2023-11-01T07:30:02.522Z,85792.31
2023-11-01T07:32:29.089Z,85795.03
2023-11-01T07:34:55.803Z,85797.59
2023-11-01T07:37:22.491Z,85798.81
2023-11-01T07:39:49.107Z,85804.38
2023-11-01T07:42:15.693Z,85797.59
2023-11-01T07:44:42.569Z,85798.03
2023-11-01T07:47:09.137Z,85803.88
2023-11-01T07:49:38.747Z,85806.53
2023-11-01T07:52:06.013Z,85803.47
2023-11-01T07:54:33.362Z,85801.47
2023-11-01T07:57:00.011Z,85797.03
2023-11-01T07:59:26.706Z,85802.66
2023-11-01T08:01:53.411Z,85810.44
2023-11-01T08:04:20.047Z,85803.94
2023-11-01T08:06:47.243Z,85804.25
2023-11-01T08:09:14.577Z,85807.03
2023-11-01T08:11:41.294Z,85808.69
2023-11-01T08:14:09.047Z,85813.84
2023-11-01T08:16:35.676Z,85813.63
2023-11-01T08:19:03.833Z,85820.97
2023-11-01T08:21:30.541Z,85813.88
2023-11-01T08:23:57.187Z,85809.03
2023-11-01T08:26:27.213Z,85814.91
2023-11-01T08:28:53.817Z,85818.19
2023-11-01T08:31:20.426Z,85814.25
2023-11-01T08:33:47.306Z,85810.63
2023-11-01T08:36:14.074Z,85811.88
2023-11-01T08:38:40.728Z,85824.13
2023-11-01T08:41:07.521Z,85823.59
2023-11-01T08:43:35.199Z,85831.41
2023-11-01T08:46:01.997Z,85828.78
2023-11-01T08:48:28.943Z,85825.47
2023-11-01T08:50:55.576Z,85821.69
2023-11-01T08:53:23.914Z,85821.38
2023-11-01T08:55:51.643Z,85835.41
2023-11-01T08:58:18.231Z,85826.88
2023-11-01T09:00:48.274Z,85827.38
2023-11-01T09:03:15.839Z,85823.03
2023-11-01T09:05:42.881Z,85829.09
2023-11-01T09:08:09.494Z,85836.09
2023-11-01T09:10:36.086Z,85827.69
2023-11-01T09:13:02.750Z,85831.59
2023-11-01T09:15:29.414Z,85836.22
2023-11-01T09:17:56.068Z,85831.03
2023-11-01T09:20:22.678Z,85826.88
2023-11-01T09:22:49.328Z,85821.03
2023-11-01T09:25:15.948Z,85828.59
2023-11-01T09:27:44.261Z,85820.56
2023-11-01T09:30:11.191Z,85819.78
2023-11-01T09:32:38.304Z,85818.13
2023-11-01T09:35:09.409Z,85806.91
2023-11-01T09:37:36.441Z,85807.97
2023-11-01T09:40:03.828Z,85812.78
2023-11-01T09:42:31.514Z,85807.97
2023-11-01T09:44:59.201Z,85799.13
2023-11-01T09:47:28.910Z,85804.19
2023-11-01T09:49:58.139Z,85794.38
2023-11-01T09:52:25.010Z,85795.56
2023-11-01T09:54:51.624Z,85795.38
2023-11-01T09:57:19.056Z,85788.41
2023-11-01T09:59:47.030Z,85791.28
2023-11-01T10:02:14.106Z,85790.72
2023-11-01T10:04:40.950Z,85797.38
2023-11-01T10:07:08.231Z,85784.19
2023-11-01T10:09:36.705Z,85782.63
2023-11-01T10:12:05.830Z,85782.84
2023-11-01T10:14:32.755Z,85786.19
2023-11-01T10:16:59.627Z,85788.53
2023-11-01T10:19:26.456Z,85790.22
2023-11-01T10:21:56.407Z,85776.94
2023-11-01T10:24:24.876Z,85781.69
2023-11-01T10:26:51.710Z,85780.03
2023-11-01T10:29:18.348Z,85779.63
2023-11-01T10:31:52.166Z,85781.44
2023-11-01T10:34:18.820Z,85773.00
2023-11-01T10:36:52.023Z,85774.41
2023-11-01T10:39:20.233Z,85779.47
2023-11-01T10:41:50.407Z,85768.44
2023-11-01T10:44:17.380Z,85776.13
2023-11-01T10:46:44.000Z,85767.06
2023-11-01T10:49:13.566Z,85769.69
2023-11-01T10:51:40.646Z,85762.50
2023-11-01T10:54:08.138Z,85761.25
2023-11-01T10:56:40.107Z,85765.00
2023-11-01T10:59:15.884Z,85760.75
2023-11-01T11:01:46.816Z,85757.47
2023-11-01T11:04:22.727Z,85757.16
2023-11-01T11:07:00.115Z,85755.91
2023-11-01T11:09:28.897Z,85757.94
2023-11-01T11:12:17.692Z,85749.47
2023-11-01T11:14:47.786Z,85753.19
2023-11-01T11:17:18.069Z,85755.41
2023-11-01T11:20:04.880Z,85745.16
2023-11-01T11:22:52.763Z,85740.53
2023-11-01T11:25:38.237Z,85747.38
2023-11-01T11:28:10.118Z,85744.25
2023-11-01T11:30:46.327Z,85742.50
2023-11-01T11:33:16.369Z,85747.13
2023-11-01T11:35:43.237Z,85739.50
2023-11-01T11:38:30.649Z,85739.59
2023-11-01T11:41:16.017Z,85724.13
2023-11-01T11:44:01.655Z,85735.13
2023-11-01T11:46:33.038Z,85734.22
2023-11-01T11:49:00.290Z,85728.50
2023-11-01T11:51:27.233Z,85735.88
2023-11-01T11:53:54.174Z,85739.09
2023-11-01T11:56:20.881Z,85727.38
2023-11-01T11:58:48.945Z,85724.03
2023-11-01T12:01:25.541Z,85729.84
2023-11-01T12:03:53.263Z,85732.00
2023-11-01T12:06:22.103Z,85731.41
2023-11-01T12:08:48.815Z,85722.19
2023-11-01T12:11:16.692Z,85732.31
2023-11-01T12:13:45.326Z,85729.94
2023-11-01T12:16:17.955Z,85729.69
2023-11-01T12:18:44.668Z,85732.25
2023-11-01T12:21:12.876Z,85730.25
2023-11-01T12:23:48.815Z,85733.31
2023-11-01T12:26:15.359Z,85736.94
2023-11-01T12:28:51.834Z,85740.34
2023-11-01T12:31:19.449Z,85738.59
2023-11-01T12:33:46.094Z,85746.75
2023-11-01T12:36:12.899Z,85740.31
2023-11-01T12:38:44.706Z,85739.34
2023-11-01T12:41:11.634Z,85733.00
2023-11-01T12:43:38.632Z,85737.75
2023-11-01T12:46:05.168Z,85748.34
2023-11-01T12:48:31.835Z,85745.22
2023-11-01T12:50:58.472Z,85737.03
2023-11-01T12:53:25.208Z,85740.78
2023-11-01T12:55:51.803Z,85733.72
2023-11-01T12:58:18.589Z,85737.56
2023-11-01T13:00:45.247Z,85738.03
2023-11-01T13:03:14.081Z,85734.97
2023-11-01T13:05:41.162Z,85741.56
2023-11-01T13:08:07.973Z,85749.63
2023-11-01T13:10:35.525Z,85739.34
2023-11-01T13:13:04.338Z,85742.41
2023-11-01T13:15:32.679Z,85742.81
2023-11-01T13:18:03.217Z,85745.91
2023-11-01T13:20:29.935Z,85743.66
2023-11-01T13:22:56.589Z,85737.25
2023-11-01T13:25:26.007Z,85743.31
2023-11-01T13:27:53.033Z,85744.91
2023-11-01T13:30:19.666Z,85746.28
2023-11-01T13:32:47.638Z,85748.16
2023-11-01T13:35:14.609Z,85742.94
2023-11-01T13:37:41.271Z,85744.78
2023-11-01T13:40:10.356Z,85743.91
2023-11-01T13:42:36.987Z,85746.41
2023-11-01T13:45:03.677Z,85745.03
2023-11-01T13:47:32.599Z,85741.78
2023-11-01T13:49:59.413Z,85740.59
2023-11-01T13:52:25.999Z,85736.13
2023-11-01T13:54:52.499Z,85744.53
2023-11-01T13:57:22.042Z,85745.53
2023-11-01T13:59:48.705Z,85735.88
2023-11-01T14:02:15.314Z,85737.03
2023-11-01T14:04:42.003Z,85742.97
2023-11-01T14:07:08.643Z,85738.47
2023-11-01T14:09:35.216Z,85745.63
2023-11-01T14:12:04.270Z,85748.69
2023-11-01T14:14:31.004Z,85741.75
2023-11-01T14:16:57.641Z,85741.41
2023-11-01T14:19:24.268Z,85748.69
2023-11-01T14:21:50.766Z,85756.09
2023-11-01T14:24:19.572Z,85758.09
2023-11-01T14:26:46.844Z,85753.06
2023-11-01T14:29:13.618Z,85755.31
2023-11-01T14:31:40.141Z,85751.59
2023-11-01T14:34:06.865Z,85748.44
2023-11-01T14:36:33.612Z,85748.78
2023-11-01T14:39:00.218Z,85749.31
2023-11-01T14:41:26.828Z,85754.53
2023-11-01T14:43:53.642Z,85750.88
2023-11-01T14:46:20.271Z,85752.69
2023-11-01T14:48:47.117Z,85755.66
2023-11-01T14:51:13.825Z,85755.66
2023-11-01T14:53:41.138Z,85766.00
2023-11-01T14:56:14.973Z,85758.28
2023-11-01T14:58:43.960Z,85755.69
2023-11-01T15:01:11.164Z,85762.28
2023-11-01T15:03:41.136Z,85761.63
2023-11-01T15:06:08.085Z,85754.09
2023-11-01T15:08:34.770Z,85753.72
2023-11-01T15:11:04.627Z,85754.88
2023-11-01T15:13:31.558Z,85755.94
2023-11-01T15:16:00.883Z,85759.91
2023-11-01T15:18:27.987Z,85765.44
2023-11-01T15:20:54.726Z,85770.59
2023-11-01T15:23:21.446Z,85771.91
2023-11-01T15:25:49.168Z,85765.31
2023-11-01T15:28:16.483Z,85764.19
2023-11-01T15:30:43.111Z,85757.69
2023-11-01T15:33:09.704Z,85761.59
2023-11-01T15:35:36.419Z,85774.31
2023-11-01T15:38:02.998Z,85765.28
2023-11-01T15:40:29.493Z,85770.59
2023-11-01T15:42:56.153Z,85775.63
2023-11-01T15:45:23.202Z,85776.34
2023-11-01T15:47:49.956Z,85778.53
2023-11-01T15:50:16.676Z,85779.25
2023-11-01T15:52:43.357Z,85787.63
2023-11-01T15:55:10.924Z,85782.00
2023-11-01T15:57:37.612Z,85784.53
2023-11-01T16:00:07.122Z,85787.69
2023-11-01T16:02:33.940Z,85793.81
2023-11-01T16:05:02.917Z,85798.69
2023-11-01T16:07:30.504Z,85796.75
2023-11-01T16:09:57.086Z,85794.63
2023-11-01T16:12:23.723Z,85797.91
2023-11-01T16:14:50.400Z,85800.16
2023-11-01T16:17:17.160Z,85801.22
2023-11-01T16:19:43.744Z,85803.81
2023-11-01T16:22:10.457Z,85805.00
2023-11-01T16:24:37.096Z,85802.09
2023-11-01T16:27:03.880Z,85807.06
2023-11-01T16:29:30.591Z,85810.38
2023-11-01T16:31:57.651Z,85807.88
2023-11-01T16:34:24.799Z,85811.78
2023-11-01T16:36:51.861Z,85809.19
2023-11-01T16:39:18.659Z,85820.50
2023-11-01T16:41:45.609Z,85817.44
2023-11-01T16:44:12.271Z,85818.75
2023-11-01T16:46:39.515Z,85826.66
2023-11-01T16:49:09.448Z,85818.19
2023-11-01T16:51:36.021Z,85819.00
2023-11-01T16:54:02.670Z,85818.38
2023-11-01T16:56:29.267Z,85823.31
2023-11-01T16:58:55.977Z,85818.41
2023-11-01T17:01:22.689Z,85822.72
2023-11-01T17:03:52.082Z,85822.91
2023-11-01T17:06:20.404Z,85817.13
2023-11-01T17:08:48.110Z,85809.09
2023-11-01T17:11:14.790Z,85806.13
2023-11-01T17:13:41.334Z,85810.03
2023-11-01T17:16:09.941Z,85823.44
2023-11-01T17:18:39.674Z,85807.53
2023-11-01T17:21:06.935Z,85813.84
2023-11-01T17:23:33.534Z,85820.44
2023-11-01T17:26:03.055Z,85813.59
2023-11-01T17:28:32.940Z,85804.09
2023-11-01T17:31:03.114Z,85809.78
2023-11-01T17:33:34.229Z,85804.81
2023-11-01T17:36:04.973Z,85809.22
2023-11-01T17:38:38.373Z,85806.25
2023-11-01T17:41:08.316Z,85813.06
2023-11-01T17:43:46.989Z,85811.09
2023-11-01T17:46:19.067Z,85813.25
2023-11-01T17:48:46.627Z,85812.69
2023-11-01T17:51:14.061Z,85808.97
2023-11-01T17:53:40.712Z,85809.84
2023-11-01T17:56:07.559Z,85804.06
2023-11-01T17:58:34.418Z,85801.91
2023-11-01T18:01:01.099Z,85814.63
2023-11-01T18:03:31.281Z,85807.59
2023-11-01T18:05:57.968Z,85816.78
2023-11-01T18:08:34.395Z,85812.88
2023-11-01T18:11:02.291Z,85821.00
2023-11-01T18:13:32.566Z,85825.09
2023-11-01T18:15:59.948Z,85819.22
2023-11-01T18:18:29.878Z,85815.44
2023-11-01T18:21:05.621Z,85818.13
2023-11-01T18:23:32.266Z,85817.91
2023-11-01T18:26:17.630Z,85829.34
2023-11-01T18:28:44.865Z,85826.44
2023-11-01T18:31:21.414Z,85826.69
2023-11-01T18:33:50.981Z,85826.56
2023-11-01T18:36:18.213Z,85818.66
2023-11-01T18:38:57.656Z,85822.13
2023-11-01T18:41:25.581Z,85818.34
2023-11-01T18:43:52.193Z,85813.00
2023-11-01T18:46:19.047Z,85812.44
2023-11-01T18:48:45.767Z,85814.66
2023-11-01T18:51:32.315Z,85808.41
2023-11-01T18:53:59.200Z,85801.84
2023-11-01T18:56:25.750Z,85804.91
2023-11-01T18:58:52.394Z,85800.00
2023-11-01T19:01:19.897Z,85813.53
2023-11-01T19:03:47.457Z,85818.88
2023-11-01T19:06:15.316Z,85813.44
2023-11-01T19:08:42.331Z,85809.94
2023-11-01T19:11:08.945Z,85807.63
2023-11-01T19:13:35.520Z,85811.28
2023-11-01T19:16:07.964Z,85815.03
2023-11-01T19:18:35.235Z,85805.31
2023-11-01T19:21:02.347Z,85805.03
2023-11-01T19:23:28.916Z,85806.91
2023-11-01T19:25:55.716Z,85802.53
2023-11-01T19:28:22.270Z,85802.75
2023-11-01T19:30:48.870Z,85800.78
2023-11-01T19:33:26.347Z,85801.75
2023-11-01T19:36:04.718Z,85794.56
2023-11-01T19:38:37.764Z,85794.72
2023-11-01T19:41:04.903Z,85790.22
2023-11-01T19:43:31.433Z,85781.94
2023-11-01T19:45:58.046Z,85784.50
2023-11-01T19:48:27.737Z,85778.88
2023-11-01T19:50:55.025Z,85774.81
2023-11-01T19:53:22.148Z,85766.56
2023-11-01T19:55:48.745Z,85768.13
2023-11-01T19:58:15.339Z,85764.53
2023-11-01T20:00:42.338Z,85755.06
2023-11-01T20:03:08.980Z,85759.63
2023-11-01T20:05:37.274Z,85747.78
2023-11-01T20:08:04.132Z,85750.34
2023-11-01T20:10:30.720Z,85751.47
2023-11-01T20:12:57.871Z,85761.84
2023-11-01T20:15:26.164Z,85755.25
2023-11-01T20:17:52.952Z,85757.38
2023-11-01T20:20:20.187Z,85753.25
2023-11-01T20:22:46.777Z,85753.00
2023-11-01T20:25:13.525Z,85755.28
2023-11-01T20:27:40.616Z,85755.91
2023-11-01T20:30:07.630Z,85754.34
2023-11-01T20:32:34.440Z,85755.50
2023-11-01T20:35:01.448Z,85760.75
2023-11-01T20:37:28.365Z,85754.38
2023-11-01T20:39:55.024Z,85754.63
2023-11-01T20:42:21.748Z,85748.41
2023-11-01T20:44:48.354Z,85745.31
2023-11-01T20:47:15.140Z,85752.94
2023-11-01T20:49:41.749Z,85747.88
2023-11-01T20:52:09.598Z,85741.00
2023-11-01T20:54:44.718Z,85740.34
2023-11-01T20:57:13.753Z,85736.22
2023-11-01T20:59:42.720Z,85730.47
2023-11-01T21:02:10.466Z,85731.50
2023-11-01T21:04:37.280Z,85728.47
2023-11-01T21:07:05.121Z,85722.88
2023-11-01T21:09:31.800Z,85731.72
2023-11-01T21:11:58.319Z,85728.22
2023-11-01T21:14:25.029Z,85727.25
2023-11-01T21:16:53.290Z,85727.66
2023-11-01T21:19:20.301Z,85728.00
2023-11-01T21:21:47.174Z,85737.34
2023-11-01T21:24:19.894Z,85720.59
2023-11-01T21:26:46.778Z,85723.28
2023-11-01T21:29:13.363Z,85729.19
2023-11-01T21:31:40.210Z,85716.56
2023-11-01T21:34:07.503Z,85717.69
2023-11-01T21:36:34.356Z,85710.69
2023-11-01T21:39:00.993Z,85708.97
2023-11-01T21:41:27.542Z,85705.06
2023-11-01T21:43:58.314Z,85701.06
2023-11-01T21:46:27.570Z,85702.91
2023-11-01T21:48:54.875Z,85699.03
2023-11-01T21:51:22.215Z,85692.03
2023-11-01T21:53:48.957Z,85695.19
2023-11-01T21:56:19.888Z,85690.78
2023-11-01T21:58:46.748Z,85690.38
2023-11-01T22:01:15.254Z,85688.00
2023-11-01T22:03:43.393Z,85683.16
2023-11-01T22:06:13.480Z,85682.75
2023-11-01T22:08:54.773Z,85692.03
2023-11-01T22:11:21.532Z,85687.66
2023-11-01T22:13:48.181Z,85681.34
2023-11-01T22:16:44.682Z,85690.78
2023-11-01T22:19:33.248Z,85684.03
2023-11-01T22:22:03.000Z,85686.31
2023-11-01T22:24:31.647Z,85687.03
2023-11-01T22:26:58.735Z,85690.88
2023-11-01T22:29:29.894Z,85688.53
2023-11-01T22:31:56.774Z,85698.44
2023-11-01T22:34:26.336Z,85679.13
2023-11-01T22:36:53.072Z,85671.47
2023-11-01T22:39:26.051Z,85670.56
2023-11-01T22:41:52.685Z,85672.28
2023-11-01T22:44:19.258Z,85672.56
2023-11-01T22:46:46.024Z,85673.28
2023-11-01T22:49:12.675Z,85670.94
2023-11-01T22:51:39.332Z,85671.41
2023-11-01T22:54:06.174Z,85672.13
2023-11-01T22:56:33.043Z,85661.06
2023-11-01T22:59:00.175Z,85665.41
2023-11-01T23:01:26.800Z,85654.91
2023-11-01T23:03:55.718Z,85661.84
2023-11-01T23:06:22.335Z,85662.88
2023-11-01T23:08:50.525Z,85653.75
2023-11-01T23:11:17.457Z,85645.94
2023-11-01T23:13:44.292Z,85648.53
2023-11-01T23:16:10.845Z,85647.06
2023-11-01T23:18:38.517Z,85642.22
2023-11-01T23:21:10.880Z,85646.91
2023-11-01T23:23:37.671Z,85645.50
2023-11-01T23:26:24.922Z,85649.19
2023-11-01T23:29:06.775Z,85648.25
2023-11-01T23:31:42.694Z,85643.28
2023-11-01T23:34:09.469Z,85636.25
2023-11-01T23:36:38.364Z,85628.41
2023-11-01T23:39:07.127Z,85629.25
2023-11-01T23:42:00.183Z,85638.22
2023-11-01T23:44:26.860Z,85620.78
2023-11-01T23:46:55.261Z,85636.63
2023-11-01T23:52:21.420Z,85630.56
2023-11-01T23:54:51.245Z,85626.09
2023-11-01T23:57:17.875Z,85620.44
2023-11-01T23:59:44.600Z,85612.00
